createdAt,value
2018-05-23T00:00:29.766Z,99.90
2018-05-23T00:02:57.245Z,99.90
2018-05-23T00:05:24.713Z,99.90
2018-05-23T00:07:52.197Z,99.90
2018-05-23T00:10:20.403Z,99.90
2018-05-23T00:12:47.874Z,99.90
2018-05-23T00:15:15.357Z,99.90
2018-05-23T00:17:42.825Z,99.90
2018-05-23T00:20:10.291Z,99.90
2018-05-23T00:22:37.757Z,99.90
2018-05-23T00:25:05.221Z,99.90
2018-05-23T00:27:32.709Z,99.90
2018-05-23T00:30:00.177Z,99.90
2018-05-23T00:32:27.649Z,99.90
2018-05-23T00:34:55.876Z,99.90
2018-05-23T00:37:23.340Z,99.90
2018-05-23T00:39:50.819Z,99.90
2018-05-23T00:42:18.289Z,99.90
2018-05-23T00:44:45.745Z,99.90
2018-05-23T00:47:13.211Z,99.90
2018-05-23T00:49:40.669Z,99.90
2018-05-23T00:52:08.143Z,99.90
2018-05-23T00:54:35.611Z,99.90
2018-05-23T00:57:03.084Z,99.90
2018-05-23T00:59:30.553Z,99.90
2018-05-23T01:01:58.017Z,99.90
2018-05-23T01:04:25.534Z,99.90
2018-05-23T01:06:52.978Z,99.90
2018-05-23T01:09:20.453Z,99.90
2018-05-23T01:11:47.913Z,99.90
2018-05-23T01:14:15.385Z,99.90
2018-05-23T01:16:42.883Z,99.90
2018-05-23T01:19:10.345Z,99.90
2018-05-23T01:21:37.811Z,99.90
2018-05-23T01:24:05.290Z,99.90
2018-05-23T01:26:32.765Z,99.90
2018-05-23T01:29:01.017Z,99.90
2018-05-23T01:31:28.485Z,99.90
2018-05-23T01:33:55.953Z,99.90
2018-05-23T01:36:23.421Z,99.90
2018-05-23T01:38:50.889Z,99.90
2018-05-23T01:41:18.351Z,99.90
2018-05-23T01:43:45.821Z,99.90
2018-05-23T01:46:13.281Z,99.90
2018-05-23T01:48:52.551Z,99.90
2018-05-23T01:51:20.025Z,99.90
2018-05-23T01:53:47.497Z,99.90
2018-05-23T01:56:14.971Z,99.90
2018-05-23T01:58:42.441Z,99.90
2018-05-23T02:01:09.933Z,99.90
2018-05-23T02:03:37.388Z,99.90
2018-05-23T02:06:04.866Z,99.90
2018-05-23T02:08:32.326Z,99.90
2018-05-23T02:10:59.797Z,99.90
2018-05-23T02:13:28.042Z,99.90
2018-05-23T02:15:55.523Z,99.90
2018-05-23T02:18:23.008Z,99.90
2018-05-23T02:20:51.247Z,99.90
2018-05-23T02:23:18.717Z,99.90
2018-05-23T02:25:46.197Z,99.90
2018-05-23T02:28:13.665Z,99.90
2018-05-23T02:30:41.133Z,99.90
2018-05-23T02:33:08.615Z,99.90
2018-05-23T02:35:36.853Z,99.90
2018-05-23T02:38:04.313Z,99.90
2018-05-23T02:40:31.795Z,99.90
2018-05-23T02:42:59.269Z,99.90
2018-05-23T02:45:26.737Z,99.90
2018-05-23T02:47:54.231Z,99.90
2018-05-23T02:50:21.691Z,99.90
2018-05-23T02:52:49.172Z,99.90
2018-05-23T02:55:16.657Z,99.90
2018-05-23T02:57:44.134Z,99.90
2018-05-23T03:00:11.605Z,99.90
2018-05-23T03:02:39.083Z,99.90
2018-05-23T03:05:06.558Z,99.90
2018-05-23T03:07:34.803Z,99.90
2018-05-23T03:10:02.283Z,99.90
2018-05-23T03:12:29.745Z,99.90
2018-05-23T03:14:57.211Z,99.90
2018-05-23T03:17:24.709Z,99.90
2018-05-23T03:19:52.176Z,99.90
2018-05-23T03:22:19.660Z,99.90
2018-05-23T03:24:47.118Z,99.90
2018-05-23T03:27:14.596Z,99.90
2018-05-23T03:29:42.092Z,99.90
2018-05-23T03:32:09.559Z,99.90
2018-05-23T03:34:37.030Z,99.90
2018-05-23T03:37:05.266Z,99.90
2018-05-23T03:39:32.728Z,99.90
2018-05-23T03:42:00.234Z,99.90
2018-05-23T03:44:27.706Z,99.90
2018-05-23T03:46:55.946Z,99.90
2018-05-23T03:49:23.424Z,99.90
2018-05-23T03:51:50.891Z,99.90
2018-05-23T03:54:18.380Z,99.90
2018-05-23T03:56:46.614Z,99.90
2018-05-23T03:59:14.075Z,99.90
2018-05-23T04:01:53.365Z,99.90
2018-05-23T04:04:32.781Z,99.90
2018-05-23T04:07:03.761Z,99.90
2018-05-23T04:09:31.233Z,99.90
2018-05-23T04:11:58.703Z,99.90
2018-05-23T04:14:26.174Z,99.90
2018-05-23T04:16:53.671Z,99.90
2018-05-23T04:19:21.130Z,99.90
2018-05-23T04:21:48.599Z,99.90
2018-05-23T04:24:16.053Z,99.90
2018-05-23T04:26:43.524Z,99.90
2018-05-23T04:29:11.028Z,99.90
2018-05-23T04:31:39.263Z,99.90
2018-05-23T04:34:06.725Z,99.90
2018-05-23T04:36:34.199Z,99.90
2018-05-23T04:39:01.664Z,99.90
2018-05-23T04:41:29.184Z,99.90
2018-05-23T04:43:56.652Z,99.90
2018-05-23T04:46:24.118Z,99.90
2018-05-23T04:48:51.655Z,99.90
2018-05-23T04:51:19.067Z,99.90
2018-05-23T04:53:46.555Z,99.90
2018-05-23T04:56:14.017Z,99.90
2018-05-23T04:58:41.490Z,99.90
2018-05-23T05:01:08.963Z,99.90
2018-05-23T05:03:37.190Z,99.90
2018-05-23T05:06:04.681Z,99.90
2018-05-23T05:08:32.144Z,99.90
2018-05-23T05:10:59.613Z,99.90
2018-05-23T05:13:27.065Z,99.90
2018-05-23T05:15:54.539Z,99.90
2018-05-23T05:18:22.060Z,99.90
2018-05-23T05:20:49.546Z,99.90
2018-05-23T05:23:17.014Z,99.90
2018-05-23T05:25:44.481Z,99.90
2018-05-23T05:28:11.965Z,99.90
2018-05-23T05:30:39.475Z,99.90
2018-05-23T05:33:06.948Z,99.90
2018-05-23T05:35:34.413Z,99.90
2018-05-23T05:38:01.891Z,99.90
2018-05-23T05:40:29.393Z,99.90
2018-05-23T05:42:56.838Z,99.90
2018-05-23T05:45:24.304Z,99.90
2018-05-23T05:47:51.772Z,99.90
2018-05-23T05:50:19.240Z,99.90
2018-05-23T05:52:46.710Z,99.90
2018-05-23T05:55:14.966Z,99.90
2018-05-23T05:57:42.426Z,99.90
2018-05-23T06:00:09.909Z,99.90
2018-05-23T06:02:37.386Z,99.90
2018-05-23T06:05:05.629Z,99.90
2018-05-23T06:07:33.119Z,99.90
2018-05-23T06:10:00.724Z,99.90
2018-05-23T06:12:28.856Z,99.90
2018-05-23T06:14:56.359Z,99.90
2018-05-23T06:17:24.601Z,99.90
2018-05-23T06:19:52.067Z,99.90
2018-05-23T06:22:19.579Z,99.90
2018-05-23T06:24:47.795Z,99.90
2018-05-23T06:27:15.287Z,99.90
2018-05-23T06:29:42.752Z,99.90
2018-05-23T06:32:10.248Z,99.90
2018-05-23T06:34:37.725Z,99.90
2018-05-23T06:37:05.203Z,99.90
2018-05-23T06:39:32.685Z,99.90
2018-05-23T06:42:00.157Z,99.90
2018-05-23T06:44:27.608Z,99.90
2018-05-23T06:46:55.091Z,99.90
2018-05-23T06:49:22.567Z,99.90
2018-05-23T06:51:50.045Z,99.90
2018-05-23T06:54:18.281Z,99.90
2018-05-23T06:56:45.741Z,99.90
2018-05-23T06:59:13.199Z,99.90
2018-05-23T07:01:41.429Z,99.90
2018-05-23T07:04:09.695Z,99.90
2018-05-23T07:06:37.157Z,99.90
2018-05-23T07:09:05.459Z,99.90
2018-05-23T07:11:33.709Z,99.90
2018-05-23T07:14:01.189Z,99.90
2018-05-23T07:16:28.687Z,99.90
2018-05-23T07:18:56.145Z,99.90
2018-05-23T07:21:23.606Z,99.90
2018-05-23T07:23:51.833Z,99.90
2018-05-23T07:26:19.289Z,99.90
2018-05-23T07:28:46.877Z,99.90
2018-05-23T07:31:14.333Z,99.90
2018-05-23T07:33:41.817Z,99.90
2018-05-23T07:36:09.294Z,99.90
2018-05-23T07:38:37.521Z,99.90
2018-05-23T07:41:05.004Z,99.90
2018-05-23T07:43:33.223Z,99.90
2018-05-23T07:46:01.455Z,99.90
2018-05-23T07:48:28.943Z,99.90
2018-05-23T07:50:56.411Z,99.90
2018-05-23T07:53:23.898Z,99.90
2018-05-23T07:55:52.143Z,99.90
2018-05-23T07:58:19.607Z,99.90
2018-05-23T08:00:47.058Z,99.90
2018-05-23T08:03:14.531Z,99.90
2018-05-23T08:05:42.790Z,99.90
2018-05-23T08:08:10.271Z,99.90
2018-05-23T08:10:37.739Z,99.90
2018-05-23T08:13:05.215Z,99.90
2018-05-23T08:15:32.685Z,99.90
2018-05-23T08:18:00.187Z,99.90
2018-05-23T08:20:27.654Z,99.90
2018-05-23T08:22:55.129Z,99.90
2018-05-23T08:25:22.613Z,99.90
2018-05-23T08:27:50.081Z,99.90
2018-05-23T08:30:17.589Z,99.90
2018-05-23T08:32:45.823Z,99.90
2018-05-23T08:35:13.295Z,99.90
2018-05-23T08:37:40.762Z,99.90
2018-05-23T08:40:08.229Z,99.90
2018-05-23T08:42:35.727Z,99.90
2018-05-23T08:45:03.199Z,99.90
2018-05-23T08:47:30.673Z,99.90
2018-05-23T08:49:58.155Z,99.90
2018-05-23T08:52:25.643Z,99.90
2018-05-23T08:54:53.133Z,99.90
2018-05-23T08:57:21.376Z,99.90
2018-05-23T08:59:48.851Z,99.90
2018-05-23T09:02:16.334Z,99.90
2018-05-23T09:04:43.805Z,99.90
2018-05-23T09:07:11.281Z,99.90
2018-05-23T09:09:39.517Z,99.90
2018-05-23T09:12:06.991Z,99.90
2018-05-23T09:14:34.456Z,99.90
2018-05-23T09:17:01.929Z,99.90
2018-05-23T09:19:29.409Z,99.90
2018-05-23T09:21:57.640Z,99.90
2018-05-23T09:24:25.114Z,99.90
2018-05-23T09:26:52.573Z,99.90
2018-05-23T09:29:20.061Z,99.90
2018-05-23T09:31:47.549Z,99.90
2018-05-23T09:34:15.787Z,99.90
2018-05-23T09:36:43.250Z,99.90
2018-05-23T09:39:10.757Z,99.90
2018-05-23T09:41:38.203Z,99.90
2018-05-23T09:44:05.679Z,99.90
2018-05-23T09:46:33.157Z,99.90
2018-05-23T09:49:01.400Z,99.90
2018-05-23T09:51:28.849Z,99.90
2018-05-23T09:53:56.317Z,99.90
2018-05-23T09:56:23.801Z,99.90
2018-05-23T09:58:51.265Z,99.90
2018-05-23T10:01:18.733Z,99.90
2018-05-23T10:03:46.296Z,99.90
2018-05-23T10:06:13.873Z,99.90
2018-05-23T10:08:41.351Z,99.90
2018-05-23T10:11:09.579Z,99.90
2018-05-23T10:13:37.043Z,99.90
2018-05-23T10:16:04.501Z,99.90
2018-05-23T10:18:31.997Z,99.90
2018-05-23T10:20:59.481Z,99.90
2018-05-23T10:23:27.752Z,99.90
2018-05-23T10:25:55.228Z,99.90
2018-05-23T10:28:23.459Z,99.70
2018-05-23T10:30:50.922Z,99.70
2018-05-23T10:33:18.493Z,99.20
2018-05-23T10:35:45.892Z,99.00
2018-05-23T10:38:13.358Z,98.60
2018-05-23T10:40:41.586Z,98.60
2018-05-23T10:43:09.042Z,98.60
2018-05-23T10:45:36.543Z,98.30
2018-05-23T10:48:04.017Z,98.20
2018-05-23T10:50:31.481Z,98.90
2018-05-23T10:52:58.972Z,99.30
2018-05-23T10:55:27.238Z,98.60
2018-05-23T10:57:54.714Z,98.60
2018-05-23T11:00:22.950Z,99.30
2018-05-23T11:02:50.429Z,99.30
2018-05-23T11:05:17.914Z,98.80
2018-05-23T11:07:46.138Z,98.10
2018-05-23T11:10:13.615Z,98.10
2018-05-23T11:12:41.070Z,97.70
2018-05-23T11:15:08.602Z,96.70
2018-05-23T11:17:36.008Z,96.80
2018-05-23T11:20:03.481Z,96.80
2018-05-23T11:22:30.968Z,96.80
2018-05-23T11:24:58.454Z,97.00
2018-05-23T11:27:26.675Z,97.40
2018-05-23T11:29:54.148Z,97.40
2018-05-23T11:32:21.623Z,96.00
2018-05-23T11:34:49.099Z,96.60
2018-05-23T11:37:16.561Z,96.00
2018-05-23T11:39:44.052Z,96.60
2018-05-23T11:42:12.286Z,94.90
2018-05-23T11:44:39.762Z,94.90
2018-05-23T11:47:07.250Z,95.70
2018-05-23T11:49:35.478Z,94.90
2018-05-23T11:52:02.951Z,94.90
2018-05-23T11:54:30.461Z,95.10
2018-05-23T11:56:57.885Z,96.10
2018-05-23T11:59:25.363Z,95.80
2018-05-23T12:01:52.921Z,96.20
2018-05-23T12:04:20.322Z,96.90
2018-05-23T12:06:48.624Z,97.50
2018-05-23T12:09:16.084Z,97.50
2018-05-23T12:11:43.585Z,97.20
2018-05-23T12:14:11.050Z,97.00
2018-05-23T12:16:38.516Z,96.30
2018-05-23T12:19:05.979Z,96.40
2018-05-23T12:21:33.438Z,97.10
2018-05-23T12:24:00.922Z,97.30
2018-05-23T12:26:28.407Z,97.00
2018-05-23T12:28:56.655Z,96.40
2018-05-23T12:31:24.120Z,96.40
2018-05-23T12:33:51.583Z,96.10
2018-05-23T12:36:19.068Z,96.40
2018-05-23T12:38:46.533Z,96.50
2018-05-23T12:41:13.995Z,96.50
2018-05-23T12:43:41.466Z,96.30
2018-05-23T12:46:10.512Z,96.00
2018-05-23T12:48:38.012Z,96.00
2018-05-23T12:51:05.467Z,95.70
2018-05-23T12:53:32.928Z,96.20
2018-05-23T12:56:00.396Z,96.90
2018-05-23T12:58:27.872Z,96.70
2018-05-23T13:00:55.366Z,97.10
2018-05-23T13:03:22.895Z,96.90
2018-05-23T13:05:50.340Z,97.20
2018-05-23T13:08:17.806Z,96.90
2018-05-23T13:10:45.285Z,97.10
2018-05-23T13:13:12.776Z,97.40
2018-05-23T13:15:41.008Z,97.30
2018-05-23T13:18:08.470Z,97.30
2018-05-23T13:20:35.954Z,97.80
2018-05-23T13:23:03.418Z,97.90
2018-05-23T13:25:30.906Z,97.70
2018-05-23T13:27:59.130Z,98.10
2018-05-23T13:30:26.606Z,98.10
2018-05-23T13:32:54.064Z,97.00
2018-05-23T13:35:21.521Z,96.60
2018-05-23T13:37:49.014Z,96.30
2018-05-23T13:40:16.490Z,96.30
2018-05-23T13:42:43.950Z,95.60
2018-05-23T13:45:11.412Z,94.80
2018-05-23T13:47:38.873Z,95.90
2018-05-23T13:50:06.360Z,96.20
2018-05-23T13:52:34.591Z,95.70
2018-05-23T13:55:02.140Z,95.70
2018-05-23T13:57:29.601Z,95.00
2018-05-23T13:59:57.070Z,94.80
2018-05-23T14:02:24.545Z,95.70
2018-05-23T14:04:52.006Z,95.40
2018-05-23T14:07:19.470Z,95.20
2018-05-23T14:09:46.938Z,95.10
2018-05-23T14:12:14.414Z,95.20
2018-05-23T14:14:42.660Z,95.20
2018-05-23T14:17:10.146Z,95.20
2018-05-23T14:19:37.616Z,94.60
2018-05-23T14:22:05.084Z,92.60
2018-05-23T14:24:32.549Z,93.20
2018-05-23T14:27:00.057Z,93.90
2018-05-23T14:29:28.285Z,94.40
2018-05-23T14:31:55.757Z,94.40
2018-05-23T14:34:23.214Z,94.30
2018-05-23T14:36:50.685Z,94.90
2018-05-23T14:39:18.184Z,95.50
2018-05-23T14:41:45.641Z,96.20
2018-05-23T14:44:13.097Z,97.20
2018-05-23T14:46:40.560Z,96.50
2018-05-23T14:49:08.034Z,97.00
2018-05-23T14:51:35.514Z,97.40
2018-05-23T14:54:03.748Z,97.30
2018-05-23T14:56:31.211Z,97.30
2018-05-23T14:58:58.676Z,97.30
2018-05-23T15:01:26.136Z,96.50
2018-05-23T15:03:54.389Z,96.70
2018-05-23T15:06:21.869Z,96.70
2018-05-23T15:08:49.331Z,95.90
2018-05-23T15:11:16.795Z,96.40
2018-05-23T15:13:44.269Z,96.10
2018-05-23T15:16:11.745Z,95.60
2018-05-23T15:18:39.249Z,95.00
2018-05-23T15:21:06.688Z,95.40
2018-05-23T15:23:34.182Z,96.00
2018-05-23T15:26:02.420Z,97.00
2018-05-23T15:28:29.915Z,97.00
2018-05-23T15:30:58.168Z,97.40
2018-05-23T15:33:26.399Z,97.40
2018-05-23T15:35:53.879Z,97.40
2018-05-23T15:38:21.338Z,97.70
2018-05-23T15:40:48.838Z,97.90
2018-05-23T15:43:16.290Z,97.60
2018-05-23T15:45:43.765Z,97.60
2018-05-23T15:48:11.218Z,98.30
2018-05-23T15:50:39.467Z,98.00
2018-05-23T15:53:06.952Z,98.00
2018-05-23T15:55:34.429Z,97.70
2018-05-23T15:58:01.893Z,97.80
2018-05-23T16:00:29.367Z,98.10
2018-05-23T16:02:56.848Z,98.40
2018-05-23T16:05:24.344Z,98.50
2018-05-23T16:07:51.809Z,98.70
2018-05-23T16:10:19.285Z,99.00
2018-05-23T16:12:46.765Z,99.00
2018-05-23T16:15:14.240Z,99.10
2018-05-23T16:17:41.732Z,99.10
2018-05-23T16:20:09.205Z,99.20
2018-05-23T16:22:36.671Z,99.70
2018-05-23T16:25:04.894Z,99.00
2018-05-23T16:27:32.364Z,99.00
2018-05-23T16:29:59.850Z,98.90
2018-05-23T16:32:27.305Z,98.80
2018-05-23T16:34:54.787Z,98.80
2018-05-23T16:37:22.259Z,98.70
2018-05-23T16:39:49.804Z,98.90
2018-05-23T16:42:17.993Z,99.10
2018-05-23T16:44:45.487Z,99.10
2018-05-23T16:47:13.719Z,98.20
2018-05-23T16:49:41.960Z,97.80
2018-05-23T16:52:09.461Z,97.70
2018-05-23T16:54:36.939Z,97.00
2018-05-23T16:57:04.411Z,96.00
2018-05-23T16:59:31.895Z,95.80
2018-05-23T17:01:59.360Z,95.70
2018-05-23T17:04:27.611Z,95.30
2018-05-23T17:06:55.109Z,95.30
2018-05-23T17:09:23.348Z,95.40
2018-05-23T17:11:50.809Z,95.50
2018-05-23T17:14:18.275Z,95.50
2018-05-23T17:16:45.729Z,95.80
2018-05-23T17:19:13.222Z,96.50
2018-05-23T17:21:40.685Z,96.50
2018-05-23T17:24:08.171Z,96.40
2018-05-23T17:26:36.413Z,96.90
2018-05-23T17:29:03.891Z,96.90
2018-05-23T17:31:31.397Z,97.20
2018-05-23T17:33:58.876Z,97.70
2018-05-23T17:36:26.368Z,95.50
2018-05-23T17:38:53.851Z,93.30
2018-05-23T17:41:21.321Z,92.90
2018-05-23T17:43:48.825Z,93.70
2018-05-23T17:46:16.324Z,93.30
2018-05-23T17:48:43.791Z,93.70
2018-05-23T17:51:11.260Z,94.50
2018-05-23T17:53:38.737Z,95.10
2018-05-23T17:56:06.240Z,95.00
2018-05-23T17:58:33.713Z,95.50
2018-05-23T18:01:01.171Z,95.40
2018-05-23T18:03:28.661Z,96.10
2018-05-23T18:05:56.225Z,99.60
2018-05-23T18:08:23.680Z,99.90
2018-05-23T18:10:51.151Z,99.90
2018-05-23T18:13:18.629Z,99.90
2018-05-23T18:15:46.105Z,99.90
2018-05-23T18:18:13.569Z,99.90
2018-05-23T18:20:41.063Z,99.90
2018-05-23T18:23:09.312Z,99.90
2018-05-23T18:25:36.791Z,99.90
2018-05-23T18:28:04.277Z,99.90
2018-05-23T18:30:32.548Z,99.90
2018-05-23T18:33:00.793Z,99.90
2018-05-23T18:35:28.285Z,99.90
2018-05-23T18:37:55.800Z,99.90
2018-05-23T18:40:23.281Z,99.90
2018-05-23T18:42:50.773Z,99.90
2018-05-23T18:45:18.268Z,99.90
2018-05-23T18:47:46.520Z,99.90
2018-05-23T18:50:14.023Z,99.90
2018-05-23T18:52:41.526Z,99.90
2018-05-23T18:55:09.286Z,99.90
2018-05-23T18:57:36.845Z,99.90
2018-05-23T19:00:04.354Z,99.90
2018-05-23T19:02:31.844Z,99.90
2018-05-23T19:04:59.357Z,99.90
2018-05-23T19:07:27.740Z,99.90
2018-05-23T19:09:55.254Z,99.90
2018-05-23T19:12:23.503Z,99.90
2018-05-23T19:14:50.996Z,99.90
2018-05-23T19:17:19.231Z,99.90
2018-05-23T19:19:46.762Z,99.90
2018-05-23T19:22:15.044Z,99.90
2018-05-23T19:24:42.544Z,99.90
2018-05-23T19:27:10.049Z,99.90
2018-05-23T19:29:38.286Z,99.90
2018-05-23T19:32:05.792Z,99.90
2018-05-23T19:34:34.051Z,99.90
2018-05-23T19:37:01.562Z,99.90
2018-05-23T19:39:29.044Z,99.90
2018-05-23T19:41:56.542Z,99.90
2018-05-23T19:44:24.018Z,99.90
2018-05-23T19:46:51.515Z,99.90
2018-05-23T19:49:19.008Z,99.90
2018-05-23T19:51:46.498Z,99.90
2018-05-23T19:54:13.993Z,99.90
2018-05-23T19:56:42.263Z,99.90
2018-05-23T19:59:09.772Z,99.90
2018-05-23T20:01:37.278Z,99.90
2018-05-23T20:04:04.780Z,99.90
2018-05-23T20:06:32.268Z,99.90
2018-05-23T20:08:59.754Z,99.90
2018-05-23T20:11:27.276Z,99.90
2018-05-23T20:13:54.821Z,99.90
2018-05-23T20:16:22.265Z,99.90
2018-05-23T20:18:49.749Z,99.90
2018-05-23T20:21:17.990Z,99.90
2018-05-23T20:23:45.504Z,99.90
2018-05-23T20:26:13.762Z,99.90
2018-05-23T20:28:41.234Z,99.90
2018-05-23T20:31:09.504Z,99.90
2018-05-23T20:33:36.977Z,99.90
2018-05-23T20:36:04.473Z,99.90
2018-05-23T20:38:31.964Z,99.90
2018-05-23T20:40:59.460Z,99.90
2018-05-23T20:43:26.927Z,99.90
2018-05-23T20:45:54.436Z,99.90
2018-05-23T20:48:21.935Z,99.90
2018-05-23T20:50:49.422Z,99.90
2018-05-23T20:53:16.915Z,99.90
2018-05-23T20:55:44.384Z,99.90
2018-05-23T20:58:11.861Z,99.90
2018-05-23T21:00:39.368Z,99.90
2018-05-23T21:03:06.872Z,99.90
2018-05-23T21:05:34.431Z,99.90
2018-05-23T21:08:01.845Z,99.90
2018-05-23T21:10:30.089Z,99.90
2018-05-23T21:12:57.626Z,99.90
2018-05-23T21:15:25.873Z,99.90
2018-05-23T21:17:53.342Z,99.90
2018-05-23T21:20:20.838Z,99.90
2018-05-23T21:22:49.096Z,99.90
2018-05-23T21:25:16.594Z,99.90
2018-05-23T21:27:44.892Z,99.90
2018-05-23T21:30:12.316Z,99.90
2018-05-23T21:32:39.783Z,99.90
2018-05-23T21:35:07.255Z,99.90
2018-05-23T21:37:35.528Z,99.90
2018-05-23T21:40:02.997Z,99.90
2018-05-23T21:42:30.467Z,99.90
2018-05-23T21:44:58.708Z,99.90
2018-05-23T21:47:26.177Z,99.90
2018-05-23T21:49:53.656Z,99.90
2018-05-23T21:52:21.146Z,99.90
2018-05-23T21:54:49.379Z,99.90
2018-05-23T21:57:16.853Z,99.90
2018-05-23T21:59:44.315Z,99.90
2018-05-23T22:02:11.820Z,99.90
2018-05-23T22:04:40.059Z,99.90
2018-05-23T22:07:07.535Z,99.90
2018-05-23T22:09:35.009Z,99.90
2018-05-23T22:12:02.475Z,99.90
2018-05-23T22:14:29.963Z,99.90
2018-05-23T22:16:57.436Z,99.90
2018-05-23T22:19:24.908Z,99.90
2018-05-23T22:21:52.385Z,99.90
2018-05-23T22:24:19.854Z,99.90
2018-05-23T22:26:47.341Z,99.90
2018-05-23T22:29:14.791Z,99.90
2018-05-23T22:31:42.257Z,99.90
2018-05-23T22:34:09.729Z,99.90
2018-05-23T22:36:37.194Z,99.90
2018-05-23T22:39:05.490Z,99.90
2018-05-23T22:41:33.722Z,99.90
2018-05-23T22:44:01.199Z,99.90
2018-05-23T22:46:28.674Z,99.90
2018-05-23T22:48:56.140Z,99.90
2018-05-23T22:51:23.627Z,99.90
2018-05-23T22:53:51.109Z,99.90
2018-05-23T22:56:22.171Z,99.90
2018-05-23T22:58:49.652Z,99.90
2018-05-23T23:01:17.131Z,99.90
2018-05-23T23:03:44.621Z,99.90
2018-05-23T23:06:12.095Z,99.90
2018-05-23T23:08:39.564Z,99.90
2018-05-23T23:11:07.029Z,99.90
2018-05-23T23:13:35.265Z,99.90
2018-05-23T23:16:02.741Z,99.90
2018-05-23T23:18:30.202Z,99.90
2018-05-23T23:20:57.671Z,99.90
2018-05-23T23:23:25.138Z,99.90
2018-05-23T23:25:52.594Z,99.90
2018-05-23T23:28:20.073Z,99.90
2018-05-23T23:30:47.557Z,99.90
2018-05-23T23:33:15.796Z,99.90
2018-05-23T23:35:43.332Z,99.90
2018-05-23T23:38:10.809Z,99.90
2018-05-23T23:40:38.298Z,99.90
2018-05-23T23:43:05.753Z,99.90
2018-05-23T23:45:33.224Z,99.90
2018-05-23T23:48:00.876Z,99.90
2018-05-23T23:50:28.179Z,99.90
2018-05-23T23:52:56.449Z,99.90
2018-05-23T23:55:23.927Z,99.90
2018-05-23T23:57:51.397Z,99.90
